Pomona, Illinois
Current Conditions -  °F | °C
As of 9:52 AM on Sunday 23 Nov 2014 (Local Time) from KMDH Reporting Station
Overcast Overcast  
Wind Chill: 57°   Ceiling: 1900
Heat Index: 57°   Visibility: 10mi
Dew Point: 49°   Wind: 15mph
Humidity: 74%   Direction: 150°SSE
Pressure: 29.7"   Gusts: 23mph
Location:  37.63°N, 89.34°W
Report Text: KMDH 231552Z AUTO 15013G20KT 10SM OVC019 14/09 A2970 RMK AO2 SLP056 T01390094
Loading
Personal Weather Stations






























Interactive Weather Map New forecast layout! Learn more

10-Day Weather Forecast

Advertisements
Track Severe Weather on mobile